sensor_id;sensor_type;location;lat;lon;timestamp;pressure;altitude;pressure_sealevel;temperature;humidity
47738;BME280;33502;47.182;27.506;2023-05-29T00:00:12;100234.28;;;11.72;100.00
47738;BME280;33502;47.182;27.506;2023-05-29T00:02:39;100236.16;;;11.70;100.00
47738;BME280;33502;47.182;27.506;2023-05-29T00:05:05;100230.44;;;11.60;100.00
47738;BME280;33502;47.182;27.506;2023-05-29T00:07:31;100233.53;;;11.51;100.00
47738;BME280;33502;47.182;27.506;2023-05-29T00:09:58;100234.75;;;11.44;100.00
47738;BME280;33502;47.182;27.506;2023-05-29T00:12:24;100242.16;;;11.37;100.00
47738;BME280;33502;47.182;27.506;2023-05-29T00:14:49;100234.34;;;11.34;100.00
47738;BME280;33502;47.182;27.506;2023-05-29T00:17:15;100234.41;;;11.32;100.00
47738;BME280;33502;47.182;27.506;2023-05-29T00:19:42;100229.03;;;11.34;100.00
47738;BME280;33502;47.182;27.506;2023-05-29T00:22:07;100228.03;;;11.36;100.00
47738;BME280;33502;47.182;27.506;2023-05-29T00:24:33;100229.75;;;11.38;100.00
47738;BME280;33502;47.182;27.506;2023-05-29T00:26:59;100238.50;;;11.40;100.00
47738;BME280;33502;47.182;27.506;2023-05-29T00:29:24;100225.88;;;11.45;100.00
47738;BME280;33502;47.182;27.506;2023-05-29T00:31:50;100235.47;;;11.47;100.00
47738;BME280;33502;47.182;27.506;2023-05-29T00:34:19;100229.16;;;11.50;100.00
47738;BME280;33502;47.182;27.506;2023-05-29T00:36:44;100231.59;;;11.54;100.00
47738;BME280;33502;47.182;27.506;2023-05-29T00:39:10;100220.03;;;11.55;100.00
47738;BME280;33502;47.182;27.506;2023-05-29T00:41:36;100222.69;;;11.55;100.00
47738;BME280;33502;47.182;27.506;2023-05-29T00:44:01;100226.91;;;11.60;100.00
47738;BME280;33502;47.182;27.506;2023-05-29T00:46:27;100220.63;;;11.62;100.00
47738;BME280;33502;47.182;27.506;2023-05-29T00:48:53;100219.53;;;11.66;100.00
47738;BME280;33502;47.182;27.506;2023-05-29T00:51:18;100227.41;;;11.68;100.00
47738;BME280;33502;47.182;27.506;2023-05-29T00:53:44;100228.50;;;11.64;100.00
47738;BME280;33502;47.182;27.506;2023-05-29T00:56:11;100226.22;;;11.56;100.00
47738;BME280;33502;47.182;27.506;2023-05-29T00:58:37;100229.31;;;11.47;100.00
47738;BME280;33502;47.182;27.506;2023-05-29T01:01:03;100228.03;;;11.36;100.00
47738;BME280;33502;47.182;27.506;2023-05-29T01:03:29;100220.53;;;11.27;100.00
47738;BME280;33502;47.182;27.506;2023-05-29T01:05:54;100235.19;;;11.15;100.00
47738;BME280;33502;47.182;27.506;2023-05-29T01:08:20;100236.44;;;11.08;100.00
47738;BME280;33502;47.182;27.506;2023-05-29T01:10:46;100233.19;;;11.02;100.00
47738;BME280;33502;47.182;27.506;2023-05-29T01:13:15;100230.88;;;10.94;100.00
47738;BME280;33502;47.182;27.506;2023-05-29T01:15:56;100234.75;;;10.87;100.00
47738;BME280;33502;47.182;27.506;2023-05-29T01:18:46;100231.53;;;10.80;100.00
47738;BME280;33502;47.182;27.506;2023-05-29T01:26:45;100221.06;;;10.96;100.00
47738;BME280;33502;47.182;27.506;2023-05-29T01:29:32;100227.38;;;10.93;100.00
47738;BME280;33502;47.182;27.506;2023-05-29T01:31:59;100240.03;;;10.87;100.00
47738;BME280;33502;47.182;27.506;2023-05-29T01:34:27;100241.16;;;10.81;100.00
47738;BME280;33502;47.182;27.506;2023-05-29T01:36:53;100239.75;;;10.74;100.00
47738;BME280;33502;47.182;27.506;2023-05-29T01:39:18;100245.56;;;10.62;100.00
47738;BME280;33502;47.182;27.506;2023-05-29T01:41:45;100246.13;;;10.49;100.00
47738;BME280;33502;47.182;27.506;2023-05-29T01:44:12;100244.72;;;10.41;100.00
47738;BME280;33502;47.182;27.506;2023-05-29T01:46:39;100239.81;;;10.31;100.00
47738;BME280;33502;47.182;27.506;2023-05-29T01:49:06;100240.19;;;10.22;100.00
47738;BME280;33502;47.182;27.506;2023-05-29T01:51:33;100249.38;;;10.13;100.00
47738;BME280;33502;47.182;27.506;2023-05-29T01:53:59;100243.69;;;10.02;100.00
47738;BME280;33502;47.182;27.506;2023-05-29T01:56:28;100251.16;;;9.92;100.00
47738;BME280;33502;47.182;27.506;2023-05-29T01:58:54;100249.72;;;9.84;100.00
47738;BME280;33502;47.182;27.506;2023-05-29T02:01:21;100251.72;;;9.78;100.00
47738;BME280;33502;47.182;27.506;2023-05-29T02:03:47;100262.59;;;9.71;100.00
47738;BME280;33502;47.182;27.506;2023-05-29T02:06:12;100254.09;;;9.63;100.00
47738;BME280;33502;47.182;27.506;2023-05-29T02:08:38;100259.69;;;9.55;100.00
47738;BME280;33502;47.182;27.506;2023-05-29T02:11:04;100259.09;;;9.48;100.00
47738;BME280;33502;47.182;27.506;2023-05-29T02:13:29;100259.81;;;9.52;100.00
47738;BME280;33502;47.182;27.506;2023-05-29T02:15:55;100254.28;;;9.58;100.00
47738;BME280;33502;47.182;27.506;2023-05-29T02:18:22;100256.94;;;9.58;100.00
47738;BME280;33502;47.182;27.506;2023-05-29T02:20:48;100264.66;;;9.63;100.00
47738;BME280;33502;47.182;27.506;2023-05-29T02:23:20;100257.72;;;9.60;100.00
47738;BME280;33502;47.182;27.506;2023-05-29T02:25:46;100271.81;;;9.60;100.00
47738;BME280;33502;47.182;27.506;2023-05-29T02:28:12;100268.50;;;9.55;100.00
47738;BME280;33502;47.182;27.506;2023-05-29T02:30:39;100266.97;;;9.50;100.00
47738;BME280;33502;47.182;27.506;2023-05-29T02:33:04;100270.81;;;9.41;100.00
47738;BME280;33502;47.182;27.506;2023-05-29T02:35:33;100274.34;;;9.40;100.00
47738;BME280;33502;47.182;27.506;2023-05-29T02:37:59;100268.28;;;9.38;100.00
47738;BME280;33502;47.182;27.506;2023-05-29T02:40:24;100275.25;;;9.40;100.00
47738;BME280;33502;47.182;27.506;2023-05-29T02:42:50;100275.09;;;9.44;100.00
47738;BME280;33502;47.182;27.506;2023-05-29T02:45:16;100268.16;;;9.41;100.00
47738;BME280;33502;47.182;27.506;2023-05-29T02:47:41;100279.63;;;9.40;100.00
47738;BME280;33502;47.182;27.506;2023-05-29T02:50:07;100285.63;;;9.45;100.00
47738;BME280;33502;47.182;27.506;2023-05-29T02:52:34;100288.97;;;9.50;100.00
47738;BME280;33502;47.182;27.506;2023-05-29T02:55:00;100289.41;;;9.62;100.00
47738;BME280;33502;47.182;27.506;2023-05-29T02:57:25;100286.44;;;9.69;100.00
47738;BME280;33502;47.182;27.506;2023-05-29T02:59:51;100290.69;;;9.73;100.00
47738;BME280;33502;47.182;27.506;2023-05-29T03:02:17;100294.88;;;9.79;100.00
47738;BME280;33502;47.182;27.506;2023-05-29T03:04:44;100293.03;;;9.81;100.00
47738;BME280;33502;47.182;27.506;2023-05-29T03:07:12;100299.00;;;9.86;100.00
47738;BME280;33502;47.182;27.506;2023-05-29T03:09:38;100303.91;;;9.95;100.00
47738;BME280;33502;47.182;27.506;2023-05-29T03:12:04;100305.38;;;10.03;100.00
47738;BME280;33502;47.182;27.506;2023-05-29T03:14:30;100306.97;;;10.07;100.00
47738;BME280;33502;47.182;27.506;2023-05-29T03:16:59;100294.41;;;10.12;100.00
47738;BME280;33502;47.182;27.506;2023-05-29T03:19:24;100295.97;;;10.17;100.00
47738;BME280;33502;47.182;27.506;2023-05-29T03:21:50;100297.53;;;10.22;100.00
47738;BME280;33502;47.182;27.506;2023-05-29T03:24:17;100292.00;;;10.28;100.00
47738;BME280;33502;47.182;27.506;2023-05-29T03:26:43;100298.84;;;10.33;100.00
47738;BME280;33502;47.182;27.506;2023-05-29T03:29:09;100296.94;;;10.37;100.00
47738;BME280;33502;47.182;27.506;2023-05-29T03:31:35;100293.22;;;10.41;100.00
47738;BME280;33502;47.182;27.506;2023-05-29T03:34:01;100300.94;;;10.47;100.00
47738;BME280;33502;47.182;27.506;2023-05-29T03:36:36;100306.97;;;10.51;100.00
47738;BME280;33502;47.182;27.506;2023-05-29T03:39:03;100302.47;;;10.53;100.00
47738;BME280;33502;47.182;27.506;2023-05-29T03:41:29;100310.13;;;10.59;100.00
47738;BME280;33502;47.182;27.506;2023-05-29T03:43:55;100313.41;;;10.64;100.00
47738;BME280;33502;47.182;27.506;2023-05-29T03:46:24;100312.22;;;10.71;100.00
47738;BME280;33502;47.182;27.506;2023-05-29T03:48:50;100318.09;;;10.80;100.00
47738;BME280;33502;47.182;27.506;2023-05-29T03:51:15;100316.84;;;10.87;100.00
47738;BME280;33502;47.182;27.506;2023-05-29T03:53:41;100327.06;;;10.96;100.00
47738;BME280;33502;47.182;27.506;2023-05-29T03:56:07;100327.72;;;11.01;100.00
47738;BME280;33502;47.182;27.506;2023-05-29T03:58:33;100323.88;;;11.08;100.00
47738;BME280;33502;47.182;27.506;2023-05-29T04:01:00;100328.59;;;11.21;100.00
47738;BME280;33502;47.182;27.506;2023-05-29T04:03:28;100334.16;;;11.35;100.00
47738;BME280;33502;47.182;27.506;2023-05-29T04:05:54;100329.00;;;11.51;100.00
47738;BME280;33502;47.182;27.506;2023-05-29T04:08:21;100329.84;;;11.70;100.00
47738;BME280;33502;47.182;27.506;2023-05-29T04:10:46;100336.03;;;11.90;100.00
47738;BME280;33502;47.182;27.506;2023-05-29T04:13:12;100333.34;;;12.09;100.00
47738;BME280;33502;47.182;27.506;2023-05-29T04:15:38;100340.94;;;12.34;100.00
47738;BME280;33502;47.182;27.506;2023-05-29T04:18:03;100337.06;;;12.59;100.00
47738;BME280;33502;47.182;27.506;2023-05-29T04:20:29;100334.09;;;12.82;100.00
47738;BME280;33502;47.182;27.506;2023-05-29T04:22:56;100337.44;;;13.03;100.00
47738;BME280;33502;47.182;27.506;2023-05-29T04:25:21;100339.72;;;13.27;100.00
47738;BME280;33502;47.182;27.506;2023-05-29T04:27:47;100339.53;;;13.47;100.00
47738;BME280;33502;47.182;27.506;2023-05-29T04:30:18;100335.06;;;13.64;100.00
47738;BME280;33502;47.182;27.506;2023-05-29T04:32:47;100336.56;;;13.85;100.00
47738;BME280;33502;47.182;27.506;2023-05-29T04:35:12;100332.31;;;14.13;100.00
47738;BME280;33502;47.182;27.506;2023-05-29T04:37:45;100330.38;;;14.31;100.00
47738;BME280;33502;47.182;27.506;2023-05-29T04:40:12;100331.13;;;14.49;100.00
47738;BME280;33502;47.182;27.506;2023-05-29T04:42:44;100336.19;;;14.70;100.00
47738;BME280;33502;47.182;27.506;2023-05-29T04:45:14;100342.66;;;14.80;100.00
47738;BME280;33502;47.182;27.506;2023-05-29T04:47:39;100335.94;;;15.03;100.00
47738;BME280;33502;47.182;27.506;2023-05-29T04:50:11;100347.47;;;15.18;100.00
47738;BME280;33502;47.182;27.506;2023-05-29T04:52:37;100343.09;;;15.31;100.00
47738;BME280;33502;47.182;27.506;2023-05-29T04:55:05;100343.91;;;15.60;100.00
47738;BME280;33502;47.182;27.506;2023-05-29T04:57:31;100335.66;;;16.07;100.00
47738;BME280;33502;47.182;27.506;2023-05-29T04:59:57;100338.31;;;16.74;100.00
47738;BME280;33502;47.182;27.506;2023-05-29T05:02:23;100346.97;;;17.67;100.00
47738;BME280;33502;47.182;27.506;2023-05-29T05:04:49;100346.50;;;18.58;100.00
47738;BME280;33502;47.182;27.506;2023-05-29T05:07:15;100355.47;;;19.06;100.00
47738;BME280;33502;47.182;27.506;2023-05-29T05:09:42;100350.34;;;19.70;96.94
47738;BME280;33502;47.182;27.506;2023-05-29T05:12:12;100358.28;;;20.70;94.54
47738;BME280;33502;47.182;27.506;2023-05-29T05:14:38;100355.78;;;21.00;84.62
47738;BME280;33502;47.182;27.506;2023-05-29T05:17:04;100354.97;;;21.51;80.02
47738;BME280;33502;47.182;27.506;2023-05-29T05:19:30;100360.78;;;21.25;77.26
47738;BME280;33502;47.182;27.506;2023-05-29T05:21:55;100360.97;;;20.70;81.41
47738;BME280;33502;47.182;27.506;2023-05-29T05:24:22;100358.81;;;21.27;78.84
47738;BME280;33502;47.182;27.506;2023-05-29T05:26:48;100361.91;;;21.23;77.22
47738;BME280;33502;47.182;27.506;2023-05-29T05:29:14;100366.66;;;21.40;77.40
47738;BME280;33502;47.182;27.506;2023-05-29T05:31:39;100360.41;;;21.70;74.56
47738;BME280;33502;47.182;27.506;2023-05-29T05:34:05;100362.00;;;21.73;73.09
47738;BME280;33502;47.182;27.506;2023-05-29T05:36:31;100367.06;;;22.07;70.65
47738;BME280;33502;47.182;27.506;2023-05-29T05:39:05;100376.19;;;22.25;71.25
47738;BME280;33502;47.182;27.506;2023-05-29T05:41:33;100362.59;;;23.05;67.24
47738;BME280;33502;47.182;27.506;2023-05-29T05:44:00;100364.81;;;23.94;62.83
47738;BME280;33502;47.182;27.506;2023-05-29T05:46:47;100367.75;;;24.29;62.05
47738;BME280;33502;47.182;27.506;2023-05-29T05:49:14;100373.84;;;24.85;61.68
47738;BME280;33502;47.182;27.506;2023-05-29T05:51:40;100372.75;;;25.39;59.77
47738;BME280;33502;47.182;27.506;2023-05-29T05:54:06;100374.09;;;26.12;55.17
47738;BME280;33502;47.182;27.506;2023-05-29T05:56:32;100374.72;;;26.06;54.80
47738;BME280;33502;47.182;27.506;2023-05-29T05:58:57;100368.75;;;26.62;53.11
47738;BME280;33502;47.182;27.506;2023-05-29T06:01:23;100371.13;;;27.06;51.80
47738;BME280;33502;47.182;27.506;2023-05-29T06:03:49;100375.69;;;27.30;50.36
47738;BME280;33502;47.182;27.506;2023-05-29T06:06:16;100376.03;;;26.53;51.18
47738;BME280;33502;47.182;27.506;2023-05-29T06:08:43;100363.13;;;26.55;50.37
47738;BME280;33502;47.182;27.506;2023-05-29T06:11:10;100369.28;;;26.82;50.78
47738;BME280;33502;47.182;27.506;2023-05-29T06:13:38;100360.47;;;25.96;50.77
47738;BME280;33502;47.182;27.506;2023-05-29T06:16:08;100369.31;;;25.72;49.79
47738;BME280;33502;47.182;27.506;2023-05-29T06:18:34;100368.16;;;26.17;49.80
47738;BME280;33502;47.182;27.506;2023-05-29T06:21:01;100363.09;;;26.38;50.18
47738;BME280;33502;47.182;27.506;2023-05-29T06:23:28;100359.09;;;26.75;49.99
47738;BME280;33502;47.182;27.506;2023-05-29T06:25:54;100355.50;;;26.50;49.53
47738;BME280;33502;47.182;27.506;2023-05-29T06:28:20;100361.38;;;26.21;50.84
47738;BME280;33502;47.182;27.506;2023-05-29T06:30:47;100361.66;;;26.02;50.37
47738;BME280;33502;47.182;27.506;2023-05-29T06:33:12;100355.81;;;25.80;51.34
47738;BME280;33502;47.182;27.506;2023-05-29T06:35:39;100350.31;;;25.72;50.98
47738;BME280;33502;47.182;27.506;2023-05-29T06:38:05;100347.16;;;25.85;53.10
47738;BME280;33502;47.182;27.506;2023-05-29T06:40:31;100340.81;;;26.02;51.94
47738;BME280;33502;47.182;27.506;2023-05-29T06:42:57;100346.38;;;25.24;52.96
47738;BME280;33502;47.182;27.506;2023-05-29T06:45:36;100347.31;;;25.40;54.32
47738;BME280;33502;47.182;27.506;2023-05-29T06:48:02;100345.56;;;25.66;52.66
47738;BME280;33502;47.182;27.506;2023-05-29T06:50:28;100351.69;;;25.68;52.33
47738;BME280;33502;47.182;27.506;2023-05-29T06:52:58;100352.31;;;25.96;53.14
47738;BME280;33502;47.182;27.506;2023-05-29T06:55:31;100340.69;;;26.28;53.27
47738;BME280;33502;47.182;27.506;2023-05-29T06:57:57;100340.00;;;25.67;53.42
47738;BME280;33502;47.182;27.506;2023-05-29T07:00:25;100334.13;;;25.46;54.71
47738;BME280;33502;47.182;27.506;2023-05-29T07:03:29;100335.47;;;25.84;54.22
47738;BME280;33502;47.182;27.506;2023-05-29T07:05:55;100330.41;;;25.89;54.47
47738;BME280;33502;47.182;27.506;2023-05-29T07:08:20;100332.59;;;26.45;52.26
47738;BME280;33502;47.182;27.506;2023-05-29T07:10:46;100323.75;;;27.00;51.53
47738;BME280;33502;47.182;27.506;2023-05-29T07:13:14;100330.16;;;27.40;50.13
47738;BME280;33502;47.182;27.506;2023-05-29T07:15:40;100331.16;;;27.79;49.08
47738;BME280;33502;47.182;27.506;2023-05-29T07:18:06;100338.59;;;28.24;46.84
47738;BME280;33502;47.182;27.506;2023-05-29T07:20:33;100334.38;;;28.83;45.51
47738;BME280;33502;47.182;27.506;2023-05-29T07:22:58;100335.69;;;29.25;44.90
47738;BME280;33502;47.182;27.506;2023-05-29T07:25:25;100335.75;;;29.02;44.30
47738;BME280;33502;47.182;27.506;2023-05-29T07:27:51;100330.59;;;29.07;43.73
47738;BME280;33502;47.182;27.506;2023-05-29T07:30:18;100332.09;;;29.69;43.93
47738;BME280;33502;47.182;27.506;2023-05-29T07:32:44;100330.41;;;29.08;44.04
47738;BME280;33502;47.182;27.506;2023-05-29T07:35:10;100328.84;;;29.14;46.09
47738;BME280;33502;47.182;27.506;2023-05-29T07:37:36;100327.81;;;29.45;45.00
47738;BME280;33502;47.182;27.506;2023-05-29T07:40:03;100320.00;;;28.89;44.57
47738;BME280;33502;47.182;27.506;2023-05-29T07:42:58;100322.75;;;28.89;45.46
47738;BME280;33502;47.182;27.506;2023-05-29T07:45:31;100316.56;;;29.10;44.17
47738;BME280;33502;47.182;27.506;2023-05-29T07:47:57;100326.53;;;29.92;44.04
47738;BME280;33502;47.182;27.506;2023-05-29T07:50:23;100321.16;;;30.85;40.75
47738;BME280;33502;47.182;27.506;2023-05-29T07:52:49;100323.03;;;31.06;39.49
47738;BME280;33502;47.182;27.506;2023-05-29T07:55:14;100317.25;;;31.22;41.46
47738;BME280;33502;47.182;27.506;2023-05-29T07:57:42;100322.09;;;31.20;42.54
47738;BME280;33502;47.182;27.506;2023-05-29T08:00:08;100329.38;;;31.41;40.87
47738;BME280;33502;47.182;27.506;2023-05-29T08:02:44;100317.03;;;31.24;39.83
47738;BME280;33502;47.182;27.506;2023-05-29T08:05:33;100312.44;;;31.66;39.93
47738;BME280;33502;47.182;27.506;2023-05-29T08:08:04;100311.97;;;31.56;38.25
47738;BME280;33502;47.182;27.506;2023-05-29T08:10:31;100315.94;;;31.47;42.95
47738;BME280;33502;47.182;27.506;2023-05-29T08:12:57;100315.25;;;31.38;41.88
47738;BME280;33502;47.182;27.506;2023-05-29T08:15:22;100308.13;;;31.44;40.10
47738;BME280;33502;47.182;27.506;2023-05-29T08:17:49;100317.47;;;31.28;39.40
47738;BME280;33502;47.182;27.506;2023-05-29T08:20:15;100312.56;;;30.88;40.02
47738;BME280;33502;47.182;27.506;2023-05-29T08:22:40;100311.66;;;31.02;39.11
47738;BME280;33502;47.182;27.506;2023-05-29T08:25:06;100310.81;;;31.02;38.17
47738;BME280;33502;47.182;27.506;2023-05-29T08:27:33;100308.03;;;31.65;38.10
47738;BME280;33502;47.182;27.506;2023-05-29T08:29:59;100314.78;;;32.44;37.84
47738;BME280;33502;47.182;27.506;2023-05-29T08:32:25;100302.31;;;32.22;37.01
47738;BME280;33502;47.182;27.506;2023-05-29T08:34:51;100304.25;;;31.73;35.81
47738;BME280;33502;47.182;27.506;2023-05-29T08:37:17;100301.00;;;32.04;36.64
47738;BME280;33502;47.182;27.506;2023-05-29T08:39:42;100294.13;;;32.28;40.23
47738;BME280;33502;47.182;27.506;2023-05-29T08:42:10;100287.31;;;32.04;37.78
47738;BME280;33502;47.182;27.506;2023-05-29T08:44:39;100284.09;;;31.04;37.74
47738;BME280;33502;47.182;27.506;2023-05-29T08:47:05;100282.22;;;31.05;38.72
47738;BME280;33502;47.182;27.506;2023-05-29T08:49:41;100281.22;;;30.84;38.05
47738;BME280;33502;47.182;27.506;2023-05-29T08:52:23;100279.59;;;30.90;37.99
47738;BME280;33502;47.182;27.506;2023-05-29T08:54:50;100279.44;;;30.98;38.49
47738;BME280;33502;47.182;27.506;2023-05-29T08:57:17;100277.31;;;31.28;36.11
47738;BME280;33502;47.182;27.506;2023-05-29T08:59:43;100273.09;;;31.67;35.28
47738;BME280;33502;47.182;27.506;2023-05-29T09:02:09;100281.28;;;31.60;40.73
47738;BME280;33502;47.182;27.506;2023-05-29T09:04:35;100269.09;;;31.70;37.50
47738;BME280;33502;47.182;27.506;2023-05-29T09:07:01;100278.78;;;31.72;37.71
47738;BME280;33502;47.182;27.506;2023-05-29T09:09:28;100272.81;;;32.10;35.64
47738;BME280;33502;47.182;27.506;2023-05-29T09:11:54;100273.47;;;32.39;36.07
47738;BME280;33502;47.182;27.506;2023-05-29T09:17:06;100274.91;;;32.08;35.65
47738;BME280;33502;47.182;27.506;2023-05-29T09:19:32;100272.00;;;31.55;34.66
47738;BME280;33502;47.182;27.506;2023-05-29T09:22:04;100267.84;;;31.31;34.69
47738;BME280;33502;47.182;27.506;2023-05-29T09:24:34;100261.31;;;31.73;38.97
47738;BME280;33502;47.182;27.506;2023-05-29T09:27:01;100268.50;;;31.33;37.87
47738;BME280;33502;47.182;27.506;2023-05-29T09:29:30;100266.69;;;29.39;38.62
47738;BME280;33502;47.182;27.506;2023-05-29T09:31:56;100266.16;;;27.84;42.51
47738;BME280;33502;47.182;27.506;2023-05-29T09:34:25;100260.06;;;27.90;40.46
47738;BME280;33502;47.182;27.506;2023-05-29T09:37:00;100263.94;;;29.09;42.12
47738;BME280;33502;47.182;27.506;2023-05-29T09:39:28;100262.03;;;29.70;40.38
47738;BME280;33502;47.182;27.506;2023-05-29T09:41:53;100260.41;;;29.39;40.12
47738;BME280;33502;47.182;27.506;2023-05-29T09:44:19;100255.66;;;29.99;40.99
47738;BME280;33502;47.182;27.506;2023-05-29T09:46:45;100260.75;;;29.36;41.02
47738;BME280;33502;47.182;27.506;2023-05-29T09:49:14;100248.69;;;28.70;42.73
47738;BME280;33502;47.182;27.506;2023-05-29T09:51:41;100250.78;;;27.68;42.33
47738;BME280;33502;47.182;27.506;2023-05-29T09:54:13;100249.75;;;28.23;44.72
47738;BME280;33502;47.182;27.506;2023-05-29T09:56:40;100252.34;;;27.31;43.18
47738;BME280;33502;47.182;27.506;2023-05-29T09:59:10;100254.34;;;26.73;45.28
47738;BME280;33502;47.182;27.506;2023-05-29T10:01:36;100243.66;;;26.71;43.82
47738;BME280;33502;47.182;27.506;2023-05-29T10:04:03;100242.16;;;27.17;44.14
47738;BME280;33502;47.182;27.506;2023-05-29T10:06:28;100237.91;;;28.16;44.49
47738;BME280;33502;47.182;27.506;2023-05-29T10:08:54;100240.53;;;29.45;43.99
47738;BME280;33502;47.182;27.506;2023-05-29T10:11:21;100246.19;;;28.46;43.13
47738;BME280;33502;47.182;27.506;2023-05-29T10:13:51;100244.44;;;27.52;45.38
47738;BME280;33502;47.182;27.506;2023-05-29T10:16:19;100237.25;;;28.14;44.42
47738;BME280;33502;47.182;27.506;2023-05-29T10:18:47;100242.50;;;27.22;45.73
47738;BME280;33502;47.182;27.506;2023-05-29T10:21:15;100242.88;;;27.10;46.21
47738;BME280;33502;47.182;27.506;2023-05-29T10:23:43;100242.81;;;27.35;44.75
47738;BME280;33502;47.182;27.506;2023-05-29T10:26:20;100237.91;;;27.93;46.48
47738;BME280;33502;47.182;27.506;2023-05-29T10:28:55;100232.00;;;28.50;41.68
47738;BME280;33502;47.182;27.506;2023-05-29T10:31:24;100225.25;;;29.14;43.22
47738;BME280;33502;47.182;27.506;2023-05-29T10:36:38;100226.75;;;29.68;38.66
47738;BME280;33502;47.182;27.506;2023-05-29T10:39:07;100222.81;;;30.14;38.18
47738;BME280;33502;47.182;27.506;2023-05-29T10:41:33;100223.41;;;30.87;41.41
47738;BME280;33502;47.182;27.506;2023-05-29T10:44:37;100226.19;;;31.29;37.24
47738;BME280;33502;47.182;27.506;2023-05-29T10:49:19;100213.91;;;31.53;39.60
47738;BME280;33502;47.182;27.506;2023-05-29T10:51:45;100219.41;;;31.73;39.77
47738;BME280;33502;47.182;27.506;2023-05-29T10:54:10;100208.94;;;31.35;39.92
47738;BME280;33502;47.182;27.506;2023-05-29T10:56:36;100210.94;;;31.48;38.00
47738;BME280;33502;47.182;27.506;2023-05-29T10:59:02;100205.97;;;31.30;38.21
47738;BME280;33502;47.182;27.506;2023-05-29T11:01:29;100214.28;;;31.50;39.72
47738;BME280;33502;47.182;27.506;2023-05-29T11:06:39;100212.25;;;31.17;38.94
47738;BME280;33502;47.182;27.506;2023-05-29T11:09:05;100210.94;;;30.78;37.65
47738;BME280;33502;47.182;27.506;2023-05-29T11:11:33;100209.31;;;31.18;40.64
47738;BME280;33502;47.182;27.506;2023-05-29T11:14:05;100203.72;;;30.98;36.91
47738;BME280;33502;47.182;27.506;2023-05-29T11:18:58;100196.97;;;30.94;36.63
47738;BME280;33502;47.182;27.506;2023-05-29T11:21:34;100199.16;;;31.12;39.64
47738;BME280;33502;47.182;27.506;2023-05-29T11:24:01;100201.38;;;31.37;37.94
47738;BME280;33502;47.182;27.506;2023-05-29T11:26:33;100198.00;;;30.93;39.26
47738;BME280;33502;47.182;27.506;2023-05-29T11:29:00;100194.56;;;31.19;36.17
47738;BME280;33502;47.182;27.506;2023-05-29T11:31:26;100190.31;;;31.52;34.84
47738;BME280;33502;47.182;27.506;2023-05-29T11:33:52;100185.28;;;31.69;36.62
47738;BME280;33502;47.182;27.506;2023-05-29T11:36:21;100181.75;;;31.88;37.79
47738;BME280;33502;47.182;27.506;2023-05-29T11:38:46;100183.47;;;32.36;38.76
47738;BME280;33502;47.182;27.506;2023-05-29T11:41:12;100182.41;;;31.35;35.75
47738;BME280;33502;47.182;27.506;2023-05-29T11:43:38;100179.69;;;31.35;39.26
47738;BME280;33502;47.182;27.506;2023-05-29T11:46:17;100178.88;;;31.41;37.89
47738;BME280;33502;47.182;27.506;2023-05-29T11:48:46;100178.25;;;30.91;37.08
47738;BME280;33502;47.182;27.506;2023-05-29T11:51:12;100174.25;;;29.30;37.59
47738;BME280;33502;47.182;27.506;2023-05-29T11:53:40;100173.31;;;28.10;40.38
47738;BME280;33502;47.182;27.506;2023-05-29T11:56:09;100162.44;;;27.64;42.61
47738;BME280;33502;47.182;27.506;2023-05-29T11:58:36;100164.13;;;29.08;39.80
47738;BME280;33502;47.182;27.506;2023-05-29T12:01:02;100156.97;;;29.59;38.96
47738;BME280;33502;47.182;27.506;2023-05-29T12:03:27;100146.03;;;30.23;37.72
47738;BME280;33502;47.182;27.506;2023-05-29T12:05:53;100145.72;;;30.33;35.71
47738;BME280;33502;47.182;27.506;2023-05-29T12:08:21;100145.72;;;30.12;36.09
47738;BME280;33502;47.182;27.506;2023-05-29T12:10:50;100148.94;;;30.22;40.65
47738;BME280;33502;47.182;27.506;2023-05-29T12:13:18;100154.88;;;29.09;39.52
47738;BME280;33502;47.182;27.506;2023-05-29T12:15:44;100151.16;;;28.96;40.26
47738;BME280;33502;47.182;27.506;2023-05-29T12:18:09;100137.34;;;29.48;40.91
47738;BME280;33502;47.182;27.506;2023-05-29T12:20:35;100139.44;;;29.46;41.90
47738;BME280;33502;47.182;27.506;2023-05-29T12:23:01;100134.41;;;30.15;39.21
47738;BME280;33502;47.182;27.506;2023-05-29T12:25:27;100136.22;;;30.57;37.83
47738;BME280;33502;47.182;27.506;2023-05-29T12:27:55;100133.34;;;30.37;36.36
47738;BME280;33502;47.182;27.506;2023-05-29T12:30:22;100133.66;;;29.78;38.41
47738;BME280;33502;47.182;27.506;2023-05-29T12:32:48;100129.75;;;28.78;38.09
47738;BME280;33502;47.182;27.506;2023-05-29T12:35:15;100129.88;;;28.17;38.65
47738;BME280;33502;47.182;27.506;2023-05-29T12:38:04;100120.72;;;27.95;38.10
47738;BME280;33502;47.182;27.506;2023-05-29T12:40:30;100130.44;;;28.65;40.32
47738;BME280;33502;47.182;27.506;2023-05-29T12:45:25;100132.47;;;29.65;38.36
47738;BME280;33502;47.182;27.506;2023-05-29T12:47:54;100118.09;;;30.00;35.71
47738;BME280;33502;47.182;27.506;2023-05-29T12:50:20;100120.44;;;30.03;36.85
47738;BME280;33502;47.182;27.506;2023-05-29T12:52:54;100113.84;;;30.19;36.10
47738;BME280;33502;47.182;27.506;2023-05-29T12:55:20;100119.41;;;30.32;36.80
47738;BME280;33502;47.182;27.506;2023-05-29T12:57:45;100114.03;;;30.39;38.29
47738;BME280;33502;47.182;27.506;2023-05-29T13:00:12;100118.16;;;30.63;37.67